createdAt,value
2019-03-15T00:00:35.495Z,38.33
2019-03-15T00:03:11.697Z,43.20
2019-03-15T00:05:54.175Z,37.35
2019-03-15T00:08:31.339Z,36.90
2019-03-15T00:11:13.272Z,38.73
2019-03-15T00:13:49.772Z,37.98
2019-03-15T00:16:33.030Z,38.58
2019-03-15T00:19:09.324Z,39.20
2019-03-15T00:21:51.187Z,40.92
2019-03-15T00:24:27.161Z,43.02
2019-03-15T00:27:09.853Z,43.98
2019-03-15T00:29:45.348Z,50.88
2019-03-15T00:32:28.800Z,41.42
2019-03-15T00:35:11.392Z,45.48
2019-03-15T00:37:47.389Z,46.28
2019-03-15T00:40:30.105Z,46.63
2019-03-15T00:43:12.405Z,45.25
2019-03-15T00:45:54.966Z,44.63
2019-03-15T00:48:37.671Z,50.80
2019-03-15T00:51:13.724Z,44.23
2019-03-15T00:53:49.486Z,39.73
2019-03-15T00:56:31.732Z,45.17
2019-03-15T00:59:21.744Z,45.15
2019-03-15T01:01:57.804Z,43.68
2019-03-15T01:04:40.087Z,49.05
2019-03-15T01:07:22.959Z,42.40
2019-03-15T01:09:59.279Z,49.10
2019-03-15T01:12:42.505Z,47.85
2019-03-15T01:15:29.069Z,49.15
2019-03-15T01:18:04.579Z,41.58
2019-03-15T01:20:47.742Z,41.68
2019-03-15T01:23:29.781Z,45.05
2019-03-15T01:26:06.213Z,42.45
2019-03-15T01:28:48.380Z,45.70
2019-03-15T01:31:24.694Z,41.58
2019-03-15T01:34:07.480Z,39.85
2019-03-15T01:36:43.040Z,38.80
2019-03-15T01:39:25.280Z,38.90
2019-03-15T01:42:01.656Z,42.70
2019-03-15T01:44:44.373Z,44.38
2019-03-15T01:47:20.424Z,46.83
2019-03-15T01:50:03.558Z,43.63
2019-03-15T01:52:39.762Z,49.35
2019-03-15T01:55:22.558Z,38.45
2019-03-15T01:57:59.018Z,47.80
2019-03-15T02:00:41.889Z,41.10
2019-03-15T02:03:24.056Z,44.50
2019-03-15T02:06:06.908Z,39.38
2019-03-15T02:08:42.711Z,43.87
2019-03-15T02:11:25.096Z,40.50
2019-03-15T02:14:08.359Z,44.85
2019-03-15T02:16:51.207Z,36.55
2019-03-15T02:19:26.688Z,39.97
2019-03-15T02:22:08.998Z,39.30
2019-03-15T02:24:52.208Z,41.55
2019-03-15T02:27:34.543Z,39.10
2019-03-15T02:30:13.396Z,44.18
2019-03-15T02:32:49.159Z,38.75
2019-03-15T02:35:32.336Z,41.55
2019-03-15T02:38:22.039Z,40.10
2019-03-15T02:40:57.790Z,38.02
2019-03-15T02:43:39.871Z,37.98
2019-03-15T02:46:22.375Z,55.00
2019-03-15T02:48:58.840Z,50.70
2019-03-15T02:51:40.373Z,51.35
2019-03-15T02:54:23.099Z,42.40
2019-03-15T02:56:58.696Z,44.75
2019-03-15T02:59:41.014Z,40.10
2019-03-15T03:02:17.037Z,41.18
2019-03-15T03:04:58.736Z,41.37
2019-03-15T03:07:34.565Z,46.42
2019-03-15T03:10:17.392Z,44.23
2019-03-15T03:12:53.751Z,37.93
2019-03-15T03:15:36.774Z,39.90
2019-03-15T03:18:12.916Z,40.35
2019-03-15T03:20:55.416Z,40.60
2019-03-15T03:23:38.611Z,43.40
2019-03-15T03:26:20.660Z,42.70
2019-03-15T03:28:57.044Z,40.25
2019-03-15T03:31:40.257Z,40.50
2019-03-15T03:34:16.784Z,46.08
2019-03-15T03:36:59.701Z,47.33
2019-03-15T03:39:35.565Z,46.13
2019-03-15T03:42:18.443Z,41.92
2019-03-15T03:44:54.768Z,41.93
2019-03-15T03:47:36.839Z,42.00
2019-03-15T03:50:16.813Z,40.08
2019-03-15T03:52:58.405Z,42.90
2019-03-15T03:55:34.126Z,39.03
2019-03-15T03:58:17.089Z,37.42
2019-03-15T04:01:00.394Z,38.48
2019-03-15T04:04:02.963Z,40.28
2019-03-15T04:06:44.620Z,40.98
2019-03-15T04:09:26.585Z,40.28
2019-03-15T04:12:02.106Z,40.50
2019-03-15T04:14:44.752Z,39.18
2019-03-15T04:17:26.441Z,39.23
2019-03-15T04:20:09.639Z,39.10
2019-03-15T04:22:45.689Z,41.88
2019-03-15T04:25:28.866Z,41.37
2019-03-15T04:28:04.741Z,42.20
2019-03-15T04:30:46.514Z,42.53
2019-03-15T04:33:22.905Z,37.58
2019-03-15T04:36:05.344Z,39.08
2019-03-15T04:38:41.676Z,37.60
2019-03-15T04:41:24.680Z,36.68
2019-03-15T04:44:01.053Z,41.68
2019-03-15T04:46:43.514Z,42.45
2019-03-15T04:49:19.495Z,38.63
2019-03-15T04:52:01.692Z,44.53
2019-03-15T04:54:38.050Z,38.80
2019-03-15T04:57:20.329Z,43.02
2019-03-15T05:00:02.637Z,40.12
2019-03-15T05:02:51.415Z,42.75
2019-03-15T05:05:34.576Z,40.08
2019-03-15T05:08:10.477Z,42.45
2019-03-15T05:10:53.304Z,37.42
2019-03-15T05:16:22.762Z,40.08
2019-03-15T05:18:58.393Z,39.45
2019-03-15T05:21:41.294Z,42.65
2019-03-15T05:24:23.425Z,41.17
2019-03-15T05:27:05.990Z,41.98
2019-03-15T05:29:41.692Z,43.58
2019-03-15T05:32:23.656Z,40.90
2019-03-15T05:35:06.031Z,40.60
2019-03-15T05:37:48.523Z,40.85
2019-03-15T05:40:24.715Z,40.63
2019-03-15T05:43:07.730Z,35.95
2019-03-15T05:45:44.073Z,31.12
2019-03-15T05:48:27.025Z,41.77
2019-03-15T05:51:10.101Z,39.45
2019-03-15T05:53:52.815Z,43.85
2019-03-15T05:56:29.212Z,40.95
2019-03-15T05:59:11.408Z,39.58
2019-03-15T06:01:47.721Z,41.95
2019-03-15T06:04:30.581Z,37.93
2019-03-15T06:07:07.382Z,37.10
2019-03-15T06:09:49.270Z,41.42
2019-03-15T06:12:31.773Z,39.15
2019-03-15T06:15:33.792Z,41.65
2019-03-15T06:18:15.908Z,57.08
2019-03-15T06:20:51.756Z,45.15
2019-03-15T06:23:33.492Z,49.95
2019-03-15T06:26:16.079Z,66.95
2019-03-15T06:29:05.376Z,46.42
2019-03-15T06:31:41.289Z,39.90
2019-03-15T06:34:23.931Z,33.80
2019-03-15T06:37:19.849Z,33.98
2019-03-15T06:40:02.945Z,30.12
2019-03-15T06:42:39.374Z,34.80
2019-03-15T06:45:22.839Z,35.17
2019-03-15T06:47:59.145Z,32.98
2019-03-15T06:50:41.783Z,29.90
2019-03-15T06:53:18.328Z,30.12
2019-03-15T06:56:00.431Z,29.27
2019-03-15T06:58:36.415Z,25.50
2019-03-15T07:01:18.543Z,30.25
2019-03-15T07:04:00.354Z,27.85
2019-03-15T07:06:36.283Z,26.62
2019-03-15T07:09:18.793Z,23.70
2019-03-15T07:11:54.935Z,26.25
2019-03-15T07:14:37.535Z,26.40
2019-03-15T07:17:20.672Z,25.10
2019-03-15T07:20:03.713Z,28.62
2019-03-15T07:22:40.149Z,26.55
2019-03-15T07:25:23.015Z,24.35
2019-03-15T07:27:59.437Z,23.07
2019-03-15T07:30:41.773Z,21.30
2019-03-15T07:33:17.390Z,23.73
2019-03-15T07:35:59.677Z,23.30
2019-03-15T07:38:42.586Z,21.90
2019-03-15T07:41:18.710Z,24.00
2019-03-15T07:44:01.576Z,22.40
2019-03-15T07:46:51.220Z,20.70
2019-03-15T07:49:27.530Z,18.52
2019-03-15T07:52:09.734Z,18.27
2019-03-15T07:54:45.494Z,15.45
2019-03-15T07:57:27.772Z,13.20
2019-03-15T08:00:12.836Z,14.95
2019-03-15T08:02:49.332Z,14.30
2019-03-15T08:05:25.611Z,12.82
2019-03-15T08:08:08.530Z,13.25
2019-03-15T08:10:58.027Z,12.55
2019-03-15T08:13:47.458Z,12.80
2019-03-15T08:16:30.350Z,12.68
2019-03-15T08:19:05.755Z,10.93
2019-03-15T08:21:48.030Z,15.25
2019-03-15T08:24:24.762Z,11.60
2019-03-15T08:27:07.124Z,33.08
2019-03-15T08:29:43.289Z,11.28
2019-03-15T08:32:26.012Z,12.80
2019-03-15T08:35:08.208Z,12.70
2019-03-15T08:37:50.391Z,12.63
2019-03-15T08:40:26.839Z,10.60
2019-03-15T08:43:09.744Z,12.43
2019-03-15T08:45:52.053Z,18.07
2019-03-15T08:48:27.801Z,13.25
2019-03-15T08:51:11.119Z,16.02
2019-03-15T08:53:46.678Z,13.18
2019-03-15T08:56:28.935Z,12.55
2019-03-15T08:59:04.530Z,14.45
2019-03-15T09:01:47.285Z,13.70
2019-03-15T09:04:30.035Z,16.07
2019-03-15T09:07:06.265Z,11.80
2019-03-15T09:09:42.158Z,13.20
2019-03-15T09:12:25.244Z,14.33
2019-03-15T09:15:08.302Z,13.90
2019-03-15T09:17:45.009Z,15.65
2019-03-15T09:20:30.128Z,15.48
2019-03-15T09:23:12.827Z,23.62
2019-03-15T09:25:56.054Z,20.85
2019-03-15T09:28:31.642Z,20.45
2019-03-15T09:31:14.997Z,17.48
2019-03-15T09:33:51.027Z,26.60
2019-03-15T09:36:34.151Z,32.15
2019-03-15T09:39:11.390Z,27.87
2019-03-15T09:41:53.912Z,25.57
2019-03-15T09:44:30.111Z,36.93
2019-03-15T09:47:12.927Z,15.23
2019-03-15T09:49:49.019Z,20.10
2019-03-15T09:52:31.570Z,48.83
2019-03-15T09:55:07.148Z,39.15
2019-03-15T09:57:49.139Z,31.48
2019-03-15T10:00:28.883Z,16.57
2019-03-15T10:03:04.767Z,20.30
2019-03-15T10:05:47.086Z,21.10
2019-03-15T10:08:29.205Z,27.13
2019-03-15T10:11:11.769Z,32.30
2019-03-15T10:13:47.829Z,12.68
2019-03-15T10:16:30.944Z,59.45
2019-03-15T10:19:07.321Z,24.47
2019-03-15T10:21:49.727Z,50.12
2019-03-15T10:24:32.611Z,10.45
2019-03-15T10:27:21.786Z,18.83
2019-03-15T10:29:57.775Z,16.00
2019-03-15T10:32:33.666Z,42.40
2019-03-15T10:35:16.210Z,20.17
2019-03-15T10:37:52.233Z,24.15
2019-03-15T10:40:38.186Z,16.90
2019-03-15T10:43:20.233Z,9.95
2019-03-15T10:45:56.282Z,10.72
2019-03-15T10:48:38.719Z,12.50
2019-03-15T10:51:21.005Z,14.60
2019-03-15T10:53:57.505Z,15.48
2019-03-15T10:56:59.588Z,13.22
2019-03-15T10:59:48.914Z,9.13
2019-03-15T11:02:31.621Z,22.32
2019-03-15T11:05:23.895Z,36.25
2019-03-15T11:08:07.315Z,20.08
2019-03-15T11:10:43.197Z,22.73
2019-03-15T11:13:32.237Z,9.40
2019-03-15T11:16:22.005Z,6.12
2019-03-15T11:19:10.881Z,3.35
2019-03-15T11:21:52.730Z,24.02
2019-03-15T11:24:36.493Z,6.75
2019-03-15T11:29:54.630Z,6.60
2019-03-15T11:32:36.569Z,7.20
2019-03-15T11:35:15.007Z,3.75
2019-03-15T11:37:58.082Z,6.12
2019-03-15T11:40:33.553Z,5.78
2019-03-15T11:43:16.005Z,5.42
2019-03-15T11:45:51.745Z,6.97
2019-03-15T11:48:35.707Z,6.22
2019-03-15T11:51:18.300Z,9.35
2019-03-15T11:54:01.370Z,8.08
2019-03-15T11:56:43.880Z,4.97
2019-03-15T11:59:26.373Z,7.37
2019-03-15T12:02:04.164Z,6.35
2019-03-15T12:04:47.749Z,4.47
2019-03-15T12:07:36.418Z,6.50
2019-03-15T12:10:31.175Z,5.65
2019-03-15T12:13:13.844Z,6.67
2019-03-15T12:15:50.414Z,5.12
2019-03-15T12:18:32.755Z,6.22
2019-03-15T12:21:15.797Z,6.17
2019-03-15T12:23:58.095Z,2.33
2019-03-15T12:26:41.052Z,5.50
2019-03-15T12:29:16.708Z,4.00
2019-03-15T12:31:59.338Z,0.93
2019-03-15T12:34:48.633Z,3.55
2019-03-15T12:37:24.161Z,9.28
2019-03-15T12:40:06.674Z,3.60
2019-03-15T12:42:42.621Z,9.68
2019-03-15T12:45:27.586Z,5.20
2019-03-15T12:48:09.845Z,5.65
2019-03-15T12:50:46.312Z,5.28
2019-03-15T12:53:21.916Z,2.83
2019-03-15T12:56:04.485Z,5.83
2019-03-15T12:58:48.096Z,4.28
2019-03-15T13:01:31.234Z,4.22
2019-03-15T13:04:13.933Z,8.53
2019-03-15T13:06:57.109Z,6.67
2019-03-15T13:09:39.721Z,4.20
2019-03-15T13:12:22.278Z,5.97
2019-03-15T13:15:05.542Z,5.85
2019-03-15T13:17:47.879Z,5.40
2019-03-15T13:20:31.390Z,5.70
2019-03-15T13:23:20.739Z,6.28
2019-03-15T13:25:57.155Z,6.47
2019-03-15T13:28:40.190Z,5.33
2019-03-15T13:31:16.891Z,5.05
2019-03-15T13:33:59.877Z,2.17
2019-03-15T13:36:48.710Z,10.60
2019-03-15T13:39:24.460Z,6.87
2019-03-15T13:42:07.005Z,5.40
2019-03-15T13:44:43.047Z,3.80
2019-03-15T13:47:26.456Z,5.92
2019-03-15T13:50:09.142Z,6.78
2019-03-15T13:52:45.311Z,5.62
2019-03-15T13:55:21.525Z,2.30
2019-03-15T13:57:57.651Z,4.65
2019-03-15T14:00:40.290Z,7.28
2019-03-15T14:03:23.129Z,23.47
2019-03-15T14:06:06.096Z,11.40
2019-03-15T14:08:48.879Z,9.30
2019-03-15T14:11:24.380Z,6.07
2019-03-15T14:14:06.354Z,9.73
2019-03-15T14:16:49.094Z,9.40
2019-03-15T14:19:31.981Z,8.45
2019-03-15T14:22:14.316Z,9.68
2019-03-15T14:24:57.079Z,10.28
2019-03-15T14:27:37.833Z,10.93
2019-03-15T14:30:20.649Z,7.17
2019-03-15T14:33:03.336Z,4.03
2019-03-15T14:35:39.269Z,4.50
2019-03-15T14:38:22.177Z,7.22
2019-03-15T14:41:07.454Z,5.50
2019-03-15T14:43:48.706Z,6.70
2019-03-15T14:46:24.551Z,10.35
2019-03-15T14:49:07.271Z,7.45
2019-03-15T14:51:43.175Z,7.45
2019-03-15T14:54:26.109Z,5.60
2019-03-15T14:57:01.638Z,7.95
2019-03-15T14:59:44.061Z,9.08
2019-03-15T15:02:26.027Z,7.12
2019-03-15T15:05:01.869Z,10.85
2019-03-15T15:07:44.530Z,13.13
2019-03-15T15:10:33.288Z,14.35
2019-03-15T15:13:15.734Z,9.55
2019-03-15T15:15:52.481Z,11.28
2019-03-15T15:18:29.156Z,8.20
2019-03-15T15:21:12.189Z,8.30
2019-03-15T15:23:54.582Z,9.08
2019-03-15T15:26:30.494Z,4.70
2019-03-15T15:29:13.781Z,6.37
2019-03-15T15:31:52.265Z,3.58
2019-03-15T15:34:35.163Z,4.55
2019-03-15T15:37:11.381Z,5.90
2019-03-15T15:39:56.112Z,6.55
2019-03-15T15:42:32.540Z,8.38
2019-03-15T15:45:20.405Z,12.00
2019-03-15T15:47:56.508Z,5.95
2019-03-15T15:50:40.235Z,11.88
2019-03-15T15:56:13.944Z,7.15
2019-03-15T15:58:55.991Z,6.97
2019-03-15T16:01:38.511Z,8.13
2019-03-15T16:04:22.710Z,12.50
2019-03-15T16:06:58.369Z,14.15
2019-03-15T16:09:34.291Z,16.67
2019-03-15T16:12:17.193Z,12.70
2019-03-15T16:14:59.960Z,14.70
2019-03-15T16:17:45.396Z,13.85
2019-03-15T16:20:27.185Z,13.65
2019-03-15T16:23:09.668Z,10.68
2019-03-15T16:25:45.652Z,13.43
2019-03-15T16:28:31.863Z,13.15
2019-03-15T16:31:12.607Z,15.50
2019-03-15T16:33:55.863Z,13.22
2019-03-15T16:36:31.843Z,9.60
2019-03-15T16:39:14.386Z,9.68
2019-03-15T16:41:56.349Z,9.03
2019-03-15T16:44:38.942Z,17.40
2019-03-15T16:47:15.224Z,13.95
2019-03-15T16:49:57.941Z,12.98
2019-03-15T16:52:33.832Z,14.38
2019-03-15T16:55:19.246Z,11.10
2019-03-15T16:58:01.855Z,12.15
2019-03-15T17:00:44.103Z,17.00
2019-03-15T17:03:20.409Z,14.33
2019-03-15T17:05:56.165Z,13.80
2019-03-15T17:08:39.035Z,11.38
2019-03-15T17:11:21.306Z,18.20
2019-03-15T17:14:03.570Z,11.97
2019-03-15T17:16:46.391Z,11.97
2019-03-15T17:19:21.992Z,17.93
2019-03-15T17:25:10.150Z,15.68
2019-03-15T17:27:53.289Z,16.17
2019-03-15T17:30:29.862Z,19.48
2019-03-15T17:33:12.427Z,21.52
2019-03-15T17:35:49.066Z,14.90
2019-03-15T17:38:32.160Z,15.55
2019-03-15T17:41:08.709Z,16.02
2019-03-15T17:43:51.179Z,17.73
2019-03-15T17:46:27.587Z,19.90
2019-03-15T17:49:10.232Z,16.48
2019-03-15T17:51:46.682Z,18.45
2019-03-15T17:54:28.615Z,18.70
2019-03-15T17:57:12.100Z,18.82
2019-03-15T17:59:48.043Z,23.73
2019-03-15T18:02:31.833Z,18.35
2019-03-15T18:07:49.994Z,18.02
2019-03-15T18:10:17.054Z,14.77
2019-03-15T18:13:08.247Z,16.12
2019-03-15T18:15:51.367Z,22.05
2019-03-15T18:18:34.803Z,21.00
2019-03-15T18:26:18.582Z,23.77
2019-03-15T18:31:33.647Z,21.40
2019-03-15T18:34:15.954Z,19.82
2019-03-15T18:36:51.935Z,19.90
2019-03-15T18:39:34.208Z,21.77
2019-03-15T18:42:17.025Z,25.15
2019-03-15T18:45:00.453Z,25.57
2019-03-15T18:47:42.848Z,28.25
2019-03-15T18:50:41.850Z,30.30
2019-03-15T18:53:26.355Z,23.00
2019-03-15T18:56:02.933Z,21.55
2019-03-15T18:58:45.482Z,21.85
2019-03-15T19:01:22.132Z,19.40
2019-03-15T19:04:04.541Z,19.23
2019-03-15T19:06:41.094Z,23.80
2019-03-15T19:09:37.865Z,22.70
2019-03-15T19:12:24.962Z,34.73
2019-03-15T19:15:08.027Z,25.85
2019-03-15T19:17:44.706Z,27.50
2019-03-15T19:20:27.204Z,31.73
2019-03-15T19:23:03.050Z,23.52
2019-03-15T19:25:46.157Z,25.00
2019-03-15T19:28:29.427Z,24.45
2019-03-15T19:31:18.759Z,23.50
2019-03-15T19:33:56.975Z,20.95
2019-03-15T19:36:39.578Z,32.30
2019-03-15T19:39:28.914Z,26.37
2019-03-15T19:42:11.288Z,31.17
2019-03-15T19:44:47.796Z,31.68
2019-03-15T19:47:29.933Z,32.35
2019-03-15T19:50:14.391Z,30.68
2019-03-15T19:52:57.278Z,35.17
2019-03-15T19:55:51.874Z,28.00
2019-03-15T19:58:30.277Z,17.30
2019-03-15T20:01:08.077Z,17.60
2019-03-15T20:03:51.150Z,17.57
2019-03-15T20:06:29.178Z,16.95
2019-03-15T20:09:14.506Z,16.20
2019-03-15T20:11:51.303Z,15.85
2019-03-15T20:14:33.506Z,9.38
2019-03-15T20:17:09.441Z,8.98
2019-03-15T20:19:51.943Z,8.63
2019-03-15T20:22:28.363Z,6.50
2019-03-15T20:25:13.084Z,9.50
2019-03-15T20:27:49.424Z,10.43
2019-03-15T20:30:32.708Z,9.83
2019-03-15T20:33:09.246Z,12.07
2019-03-15T20:35:52.151Z,9.10
2019-03-15T20:38:35.011Z,11.60
2019-03-15T20:41:23.879Z,12.70
2019-03-15T20:44:27.439Z,6.62
2019-03-15T20:47:04.325Z,7.78
2019-03-15T20:49:53.371Z,9.30
2019-03-15T20:52:42.160Z,7.37
2019-03-15T20:55:31.518Z,10.85
2019-03-15T20:58:22.301Z,14.87
2019-03-15T21:01:11.421Z,51.95
2019-03-15T21:04:00.481Z,12.75
2019-03-15T21:06:52.863Z,9.40
2019-03-15T21:09:42.367Z,11.55
2019-03-15T21:12:24.759Z,12.35
2019-03-15T21:15:06.826Z,10.40
2019-03-15T21:17:42.382Z,9.63
2019-03-15T21:20:26.130Z,11.00
2019-03-15T21:25:41.690Z,10.13
2019-03-15T21:28:23.970Z,12.47
2019-03-15T21:31:06.075Z,11.05
2019-03-15T21:33:55.736Z,11.50
2019-03-15T21:36:45.464Z,7.87
2019-03-15T21:39:12.506Z,13.22
2019-03-15T21:42:01.880Z,12.80
2019-03-15T21:44:54.171Z,12.37
2019-03-15T21:50:10.040Z,9.43
2019-03-15T21:53:19.382Z,9.88
2019-03-15T21:56:08.712Z,6.45
2019-03-15T22:01:24.138Z,8.08
2019-03-15T22:04:14.047Z,8.30
2019-03-15T22:07:03.850Z,11.50
2019-03-15T22:09:55.407Z,14.38
2019-03-15T22:12:45.369Z,99.85
2019-03-15T22:15:34.802Z,72.42
2019-03-15T22:18:24.561Z,38.88
2019-03-15T22:21:14.055Z,8.73
2019-03-15T22:23:41.101Z,13.70
2019-03-15T22:26:30.191Z,14.23
2019-03-15T22:29:13.004Z,6.80
2019-03-15T22:31:55.094Z,5.83
2019-03-15T22:34:45.017Z,8.05
2019-03-15T22:37:35.024Z,5.85
2019-03-15T22:40:26.551Z,10.00
2019-03-15T22:43:16.002Z,9.10
2019-03-15T22:46:05.063Z,9.28
2019-03-15T22:48:54.344Z,11.30
2019-03-15T22:51:43.308Z,9.48
2019-03-15T22:54:32.562Z,11.60
2019-03-15T22:57:21.169Z,9.35
2019-03-15T23:02:44.783Z,13.75
2019-03-15T23:05:34.195Z,12.98
2019-03-15T23:10:51.238Z,12.43
2019-03-15T23:13:40.351Z,13.47
2019-03-15T23:16:29.933Z,13.90
2019-03-15T23:19:19.628Z,14.60
2019-03-15T23:22:08.825Z,12.63
2019-03-15T23:24:51.115Z,11.05
2019-03-15T23:27:27.704Z,9.40
2019-03-15T23:30:11.266Z,10.25
2019-03-15T23:32:53.835Z,5.22
2019-03-15T23:40:41.663Z,9.13
2019-03-15T23:43:17.325Z,11.08
2019-03-15T23:45:59.756Z,10.90
2019-03-15T23:48:36.320Z,7.12
2019-03-15T23:51:18.742Z,8.40
2019-03-15T23:53:55.159Z,12.15
2019-03-15T23:56:37.241Z,6.45
2019-03-15T23:59:19.767Z,8.15
